Alturas, Florida
Current Conditions -  °F | °C
As of 7:35 PM on Sunday 21 Dec 2014 (Local Time) from KBOW Reporting Station
Broken Clouds Broken Clouds  
Wind Chill: 68°   Ceiling: 7500
Heat Index: 68°   Visibility: 10mi
Dew Point: 63°   Wind: 7mph
Humidity: 83%   Direction: 20°NNE
Pressure: 30.05"   Gusts: NA
Location:  27.87°N, 81.71°W
Report Text: KBOW 220035Z AUTO 02006KT 10SM SCT065 BKN075 20/17 A3005 RMK AO2 LTG DSNT W
Loading
Personal Weather Stations






























Interactive Weather Map New forecast layout! Learn more

10-Day Weather Forecast

Advertisements
Track Severe Weather on mobile